KBMG/BMG METAR and TAF weather

Enter ICAO airport designator
Station Type Date Time Source
KBMG METAR 2018/07/21 03:53 UTC NOAA

KBMG 210353Z AUTO 00000KT 10SM CLR 22/19 A2979 RMK AO2 SLP081 T02170189


Station Type Date Time Source
KBMG Decoded METAR 2018/07/21 03:53 UTC NOAA

MONROE COUNTY AIRPORT, IN, United States (KBMG) 39-09N 086-37W 257M
Jul 20, 2018 - 11:53 PM EDT / 2018.07.21 0353 UTC
Wind: Calm:0
Visibility: 10 mile(s):0
Sky conditions: clear
Temperature: 71.1 F (21.7 C)
Dew Point: 66.0 F (18.9 C)
Relative Humidity: 84%
Pressure (altimeter): 29.79 in. Hg (1008 hPa)
ob: KBMG 210353Z AUTO 00000KT 10SM CLR 22/19 A2979 RMK AO2 SLP081 T02170189
cycle: 4

Station Type Date Time Source
KBMG TAF 2018/07/20 18:27 UTC NOAA

TAF KBMG 201725Z 2018/2118 23010KT P6SM SCT035
FM202100 25010KT P6SM VCTS SCT060CB
FM210600 23005KT P6SM SCT090
FM210900 24006KT P6SM BKN040
FM211200 25006KT P6SM BKN015


Example: see airport list